Time;durP1;ratioP1;P1;durP2;ratioP2;P2;SDS_P1;SDS_P2;PMS_P1;PMS_P2;Temp;Humidity;BMP_temperature;BMP_pressure;BME280_temperature;BME280_humidity;BME280_pressure;Samples;Min_cycle;Max_cycle;Signal;HPM_P1;HPM_P2
2022/05/13 00:00:22;;;;;;;3.78;0.50;;;;;;;;;;5094914;28;20114;-88
2022/05/13 00:02:48;;;;;;;3.88;0.75;;;;;;;;;;5094832;28;20111;-87
2022/05/13 00:05:13;;;;;;;4.78;0.63;;;;;;;;;;5094820;28;20020;-87
2022/05/13 00:07:38;;;;;;;2.90;0.60;;;;;;;;;;5094828;28;20067;-88
2022/05/13 00:10:07;;;;;;;10.25;2.35;;;;;;;;;;5094773;28;20020;-88
2022/05/13 00:12:36;;;;;;;6.68;0.70;;;;;;;;;;5095918;28;20023;-88
2022/05/13 00:15:02;;;;;;;7.00;0.90;;;;;;;;;;5094525;28;20411;-88
2022/05/13 00:17:28;;;;;;;5.65;0.90;;;;;;;;;;5094689;28;20016;-88
2022/05/13 00:19:54;;;;;;;3.92;0.75;;;;;;;;;;5094643;28;20024;-88
2022/05/13 00:22:19;;;;;;;6.38;0.77;;;;;;;;;;5094502;28;20024;-88
2022/05/13 00:24:45;;;;;;;9.93;1.60;;;;;;;;;;5094483;28;20429;-88
2022/05/13 00:27:10;;;;;;;4.57;0.77;;;;;;;;;;5094328;28;20022;-88
2022/05/13 00:29:35;;;;;;;3.95;0.93;;;;;;;;;;5094376;28;20473;-88
2022/05/13 00:32:01;;;;;;;6.32;0.90;;;;;;;;;;5094323;28;20016;-88
2022/05/13 00:34:26;;;;;;;3.70;0.70;;;;;;;;;;5093960;28;20379;-88
2022/05/13 00:36:51;;;;;;;7.38;0.90;;;;;;;;;;5094343;28;20024;-88
2022/05/13 00:39:17;;;;;;;6.05;0.90;;;;;;;;;;5094260;28;20064;-88
2022/05/13 00:41:42;;;;;;;4.13;0.85;;;;;;;;;;5094034;28;20111;-88
2022/05/13 00:44:08;;;;;;;4.25;0.85;;;;;;;;;;5093865;28;20463;-88
2022/05/13 00:46:34;;;;;;;4.32;1.10;;;;;;;;;;5094128;28;20113;-88
2022/05/13 00:49:00;;;;;;;7.65;1.00;;;;;;;;;;5093915;28;20028;-88
2022/05/13 00:51:28;;;;;;;5.90;0.80;;;;;;;;;;5095135;28;20024;-88
2022/05/13 00:53:55;;;;;;;2.42;0.75;;;;;;;;;;5095116;28;20020;-88
2022/05/13 00:56:21;;;;;;;3.50;1.00;;;;;;;;;;5093849;28;20020;-88
2022/05/13 00:58:47;;;;;;;5.80;0.95;;;;;;;;;;5094058;28;20069;-88
2022/05/13 01:01:13;;;;;;;7.05;0.90;;;;;;;;;;5093625;28;20388;-88
2022/05/13 01:03:39;;;;;;;3.17;0.80;;;;;;;;;;5093773;28;20012;-88
2022/05/13 01:06:06;;;;;;;4.47;1.33;;;;;;;;;;5093634;28;20108;-88
2022/05/13 01:08:32;;;;;;;7.97;0.90;;;;;;;;;;5093506;28;20451;-87
2022/05/13 01:10:58;;;;;;;4.30;0.82;;;;;;;;;;5094653;28;20084;-88
2022/05/13 01:13:28;;;;;;;5.47;1.33;;;;;;;;;;5093636;28;20031;-88
2022/05/13 01:15:53;;;;;;;9.88;1.00;;;;;;;;;;5093487;28;20493;-88
2022/05/13 01:18:30;;;;;;;10.02;0.90;;;;;;;;;;5100653;28;20043;-88
2022/05/13 01:20:56;;;;;;;5.78;0.80;;;;;;;;;;5110299;28;20031;-87
2022/05/13 01:23:23;;;;;;;5.70;1.00;;;;;;;;;;5094548;28;20455;-88
2022/05/13 01:25:50;;;;;;;5.47;1.10;;;;;;;;;;5110229;28;20043;-87
2022/05/13 01:28:18;;;;;;;6.70;1.15;;;;;;;;;;5110227;28;20016;-88
2022/05/13 01:30:45;;;;;;;5.03;1.10;;;;;;;;;;5110258;28;20020;-87
2022/05/13 01:33:11;;;;;;;6.03;1.00;;;;;;;;;;5110376;28;20096;-87
2022/05/13 01:35:38;;;;;;;7.72;2.15;;;;;;;;;;5110247;28;20055;-88
2022/05/13 01:38:03;;;;;;;5.15;0.70;;;;;;;;;;5110036;28;20020;-87
2022/05/13 01:40:28;;;;;;;7.97;1.30;;;;;;;;;;5110103;28;20027;-88
2022/05/13 01:42:53;;;;;;;6.65;1.17;;;;;;;;;;5110044;28;20020;-88
2022/05/13 01:45:19;;;;;;;9.60;1.35;;;;;;;;;;5109356;28;20055;-88
2022/05/13 01:47:44;;;;;;;5.72;1.20;;;;;;;;;;5109922;28;20099;-88
2022/05/13 01:50:09;;;;;;;7.22;1.15;;;;;;;;;;5109979;28;20534;-88
2022/05/13 01:52:35;;;;;;;7.03;1.35;;;;;;;;;;5109703;28;20103;-88
2022/05/13 01:55:00;;;;;;;4.47;1.10;;;;;;;;;;5109884;28;20035;-88
2022/05/13 01:57:25;;;;;;;8.18;1.25;;;;;;;;;;5109938;28;20455;-87
2022/05/13 01:59:51;;;;;;;9.57;1.95;;;;;;;;;;5109858;28;20471;-88
2022/05/13 02:02:16;;;;;;;5.85;1.23;;;;;;;;;;5109745;28;20023;-88
2022/05/13 02:04:41;;;;;;;7.03;0.95;;;;;;;;;;5109737;28;20047;-87
2022/05/13 02:07:07;;;;;;;7.85;1.40;;;;;;;;;;5109884;28;20083;-87
2022/05/13 02:09:32;;;;;;;5.75;0.90;;;;;;;;;;5109670;28;20031;-87
2022/05/13 02:11:57;;;;;;;2.47;0.95;;;;;;;;;;5109838;28;20048;-88
2022/05/13 02:14:22;;;;;;;8.32;1.00;;;;;;;;;;5094046;28;20023;-88
2022/05/13 02:16:48;;;;;;;10.23;1.45;;;;;;;;;;5093782;28;20111;-88
2022/05/13 02:19:13;;;;;;;7.88;1.40;;;;;;;;;;5109734;28;20059;-88
2022/05/13 02:21:39;;;;;;;7.40;1.25;;;;;;;;;;5109729;28;20020;-88
2022/05/13 02:24:05;;;;;;;14.07;1.27;;;;;;;;;;5109571;28;20013;-88
2022/05/13 02:26:30;;;;;;;10.65;1.42;;;;;;;;;;5093845;28;20360;-87
2022/05/13 02:28:59;;;;;;;10.23;1.15;;;;;;;;;;5093691;28;20012;-87
2022/05/13 02:31:25;;;;;;;9.50;1.38;;;;;;;;;;5109756;28;20387;-88
2022/05/13 02:33:50;;;;;;;7.70;1.38;;;;;;;;;;5109510;28;20024;-88
2022/05/13 02:36:15;;;;;;;8.07;1.30;;;;;;;;;;5109416;28;20056;-88
2022/05/13 02:38:40;;;;;;;11.60;1.42;;;;;;;;;;5109453;28;20090;-87
2022/05/13 02:41:12;;;;;;;9.27;1.45;;;;;;;;;;5109250;28;20107;-87
2022/05/13 02:43:48;;;;;;;11.80;1.90;;;;;;;;;;5093577;28;20467;-87
2022/05/13 02:46:15;;;;;;;5.15;1.38;;;;;;;;;;5109512;28;20533;-87
2022/05/13 02:48:40;;;;;;;9.35;2.13;;;;;;;;;;5109374;28;20024;-87
2022/05/13 02:51:06;;;;;;;10.68;1.50;;;;;;;;;;5109316;28;20096;-87
2022/05/13 02:53:31;;;;;;;8.38;1.38;;;;;;;;;;5109295;28;20039;-87
2022/05/13 02:55:57;;;;;;;12.98;2.00;;;;;;;;;;5109486;28;20020;-87
2022/05/13 02:58:22;;;;;;;7.60;1.25;;;;;;;;;;5097244;28;20375;-88
2022/05/13 03:00:47;;;;;;;6.03;1.45;;;;;;;;;;5113527;28;20026;-88
2022/05/13 03:03:13;;;;;;;11.27;1.35;;;;;;;;;;5097890;28;20031;-87
2022/05/13 03:05:38;;;;;;;6.53;1.40;;;;;;;;;;5113002;28;20077;-87
2022/05/13 03:08:04;;;;;;;12.98;1.20;;;;;;;;;;5097154;28;20380;-87
2022/05/13 03:10:30;;;;;;;5.80;1.48;;;;;;;;;;5096986;28;20107;-87
2022/05/13 03:12:55;;;;;;;10.70;1.55;;;;;;;;;;5097128;28;20390;-87
2022/05/13 03:15:21;;;;;;;15.40;1.80;;;;;;;;;;5112845;28;20047;-87
2022/05/13 03:17:46;;;;;;;11.48;2.40;;;;;;;;;;5112603;28;20028;-87
2022/05/13 03:20:14;;;;;;;15.15;1.60;;;;;;;;;;5112684;28;20024;-87
2022/05/13 03:22:40;;;;;;;13.77;1.98;;;;;;;;;;5112708;28;20027;-88
2022/05/13 03:25:05;;;;;;;10.63;1.30;;;;;;;;;;5112684;28;20028;-87
2022/05/13 03:27:31;;;;;;;15.57;1.52;;;;;;;;;;5112536;28;20107;-87
2022/05/13 03:29:57;;;;;;;12.30;1.73;;;;;;;;;;5112704;28;20081;-87
2022/05/13 03:32:22;;;;;;;9.30;1.60;;;;;;;;;;5096673;28;20103;-88
2022/05/13 03:34:47;;;;;;;9.60;1.63;;;;;;;;;;5112364;28;20077;-87
2022/05/13 03:37:12;;;;;;;10.23;1.67;;;;;;;;;;5112347;28;20475;-87
2022/05/13 03:39:37;;;;;;;13.85;1.50;;;;;;;;;;5112452;28;20086;-87
2022/05/13 03:42:03;;;;;;;13.55;2.03;;;;;;;;;;5112217;28;20020;-87
2022/05/13 03:44:28;;;;;;;11.48;1.38;;;;;;;;;;5112238;28;20417;-87
2022/05/13 03:46:53;;;;;;;5.45;1.38;;;;;;;;;;5096081;28;20020;-87
2022/05/13 03:49:18;;;;;;;9.00;1.30;;;;;;;;;;5112156;28;20020;-88
2022/05/13 03:51:44;;;;;;;6.47;1.40;;;;;;;;;;5112118;28;20066;-87
2022/05/13 03:54:09;;;;;;;7.60;1.30;;;;;;;;;;5112067;28;20464;-87
2022/05/13 03:56:34;;;;;;;7.65;1.30;;;;;;;;;;5096226;28;20108;-87
2022/05/13 03:58:59;;;;;;;12.50;1.63;;;;;;;;;;5096073;28;20024;-87
2022/05/13 04:01:24;;;;;;;8.30;1.42;;;;;;;;;;5111897;27;20040;-87
2022/05/13 04:03:50;;;;;;;10.93;1.42;;;;;;;;;;5095911;28;20149;-87
2022/05/13 04:08:59;;;;;;;8.25;1.52;;;;;;;;;;5095740;28;20094;-87
2022/05/13 04:11:30;;;;;;;6.68;1.40;;;;;;;;;;5095845;28;20028;-87
2022/05/13 04:16:39;;;;;;;6.57;1.88;;;;;;;;;;5096178;28;20081;-87
2022/05/13 04:19:04;;;;;;;6.18;1.60;;;;;;;;;;5095955;28;20024;-87
2022/05/13 04:21:32;;;;;;;10.05;1.73;;;;;;;;;;5111503;28;20435;-88
2022/05/13 04:23:58;;;;;;;14.18;2.05;;;;;;;;;;5111353;28;20024;-87
2022/05/13 04:26:24;;;;;;;7.80;2.10;;;;;;;;;;5111376;28;20091;-87
2022/05/13 04:28:50;;;;;;;5.78;1.20;;;;;;;;;;5111389;28;20069;-88
2022/05/13 04:31:17;;;;;;;9.20;1.70;;;;;;;;;;5111376;28;20051;-87
2022/05/13 04:33:42;;;;;;;10.43;1.80;;;;;;;;;;5111203;28;20069;-87
2022/05/13 04:36:08;;;;;;;10.82;1.80;;;;;;;;;;5111408;28;20425;-87
2022/05/13 04:38:33;;;;;;;15.05;1.80;;;;;;;;;;5111494;28;20070;-87
2022/05/13 04:42:49;;;;;;;7.63;1.58;;;;;;;;;;5110942;28;20024;-87
2022/05/13 04:43:47;;;;;;;9.27;1.50;;;;;;;;;;5095143;28;20032;-88
2022/05/13 04:46:12;;;;;;;16.25;2.13;;;;;;;;;;5111030;28;20020;-87
2022/05/13 04:48:37;;;;;;;12.98;1.60;;;;;;;;;;5111127;28;20016;-87
2022/05/13 04:51:02;;;;;;;11.15;1.55;;;;;;;;;;5110964;28;20573;-87
2022/05/13 04:53:29;;;;;;;13.68;1.50;;;;;;;;;;5110958;28;20024;-87
2022/05/13 04:55:55;;;;;;;9.13;1.65;;;;;;;;;;5110964;28;20016;-87
2022/05/13 04:58:22;;;;;;;12.25;1.40;;;;;;;;;;5110939;28;20489;-87
2022/05/13 05:00:48;;;;;;;7.47;1.63;;;;;;;;;;5110686;28;20027;-87
2022/05/13 05:03:14;;;;;;;8.63;1.50;;;;;;;;;;5110762;28;20016;-87
2022/05/13 05:05:41;;;;;;;10.50;1.67;;;;;;;;;;5110628;28;20012;-87
2022/05/13 05:08:08;;;;;;;14.50;1.75;;;;;;;;;;5094879;28;20073;-87
2022/05/13 05:10:33;;;;;;;11.38;1.90;;;;;;;;;;5110691;28;20107;-87
2022/05/13 05:12:58;;;;;;;6.03;1.80;;;;;;;;;;5110626;28;20062;-87
2022/05/13 05:15:24;;;;;;;11.63;1.88;;;;;;;;;;5110588;28;20054;-88
2022/05/13 05:17:50;;;;;;;13.63;1.80;;;;;;;;;;5110652;28;20085;-87
2022/05/13 05:20:15;;;;;;;11.63;1.88;;;;;;;;;;5110468;28;20059;-87
2022/05/13 05:22:44;;;;;;;10.45;2.03;;;;;;;;;;5110325;28;20024;-87
2022/05/13 05:25:09;;;;;;;13.18;1.75;;;;;;;;;;5110344;28;20023;-87
2022/05/13 05:27:37;;;;;;;11.10;1.73;;;;;;;;;;5110401;28;20439;-88
2022/05/13 05:30:03;;;;;;;10.15;1.75;;;;;;;;;;5110264;28;20024;-87
2022/05/13 05:32:28;;;;;;;9.45;1.90;;;;;;;;;;5110127;28;20428;-87
2022/05/13 05:34:54;;;;;;;11.82;1.75;;;;;;;;;;5110029;28;20052;-87
2022/05/13 05:37:19;;;;;;;12.30;1.67;;;;;;;;;;5110366;28;20012;-88
2022/05/13 05:39:44;;;;;;;13.38;2.03;;;;;;;;;;5110201;28;20055;-87
2022/05/13 05:42:09;;;;;;;8.18;1.88;;;;;;;;;;5109948;28;20457;-87
2022/05/13 05:44:34;;;;;;;14.43;2.00;;;;;;;;;;5109979;28;20038;-87
2022/05/13 05:46:59;;;;;;;12.93;2.30;;;;;;;;;;5109971;28;20024;-87
2022/05/13 05:49:25;;;;;;;13.38;1.58;;;;;;;;;;5109894;28;20020;-88
2022/05/13 05:51:50;;;;;;;13.05;2.53;;;;;;;;;;5109985;28;20516;-87
2022/05/13 05:57:14;;;;;;;11.40;1.83;;;;;;;;;;5094249;28;20081;-87
2022/05/13 05:59:40;;;;;;;15.20;2.60;;;;;;;;;;5109881;28;20023;-87
2022/05/13 06:02:05;;;;;;;12.50;2.35;;;;;;;;;;5109674;28;20020;-87
2022/05/13 06:04:31;;;;;;;16.73;2.15;;;;;;;;;;5109851;28;20016;-88
2022/05/13 06:06:56;;;;;;;17.40;2.42;;;;;;;;;;5093934;28;20058;-87
2022/05/13 06:09:21;;;;;;;10.50;2.30;;;;;;;;;;5092769;28;20383;-87
2022/05/13 06:11:46;;;;;;;13.35;1.90;;;;;;;;;;5109957;28;20028;-87
2022/05/13 06:14:11;;;;;;;16.70;2.15;;;;;;;;;;5109667;28;20524;-87
2022/05/13 06:16:37;;;;;;;17.13;2.92;;;;;;;;;;5109646;28;20012;-87
2022/05/13 06:19:02;;;;;;;13.00;2.38;;;;;;;;;;5109651;28;20486;-87
2022/05/13 06:21:28;;;;;;;19.10;3.42;;;;;;;;;;5093688;28;20146;-86
2022/05/13 06:23:54;;;;;;;13.77;2.35;;;;;;;;;;5093808;28;20013;-87
2022/05/13 06:26:21;;;;;;;15.60;2.72;;;;;;;;;;5093897;28;20008;-87
2022/05/13 06:28:46;;;;;;;16.02;2.80;;;;;;;;;;5109523;28;20027;-87
2022/05/13 06:31:11;;;;;;;17.38;3.30;;;;;;;;;;5094432;28;20020;-87
2022/05/13 06:33:36;;;;;;;15.23;4.32;;;;;;;;;;5113951;28;20048;-88
2022/05/13 06:36:02;;;;;;;25.15;3.58;;;;;;;;;;5113449;28;20051;-87
2022/05/13 06:38:27;;;;;;;16.45;2.88;;;;;;;;;;5097734;28;20027;-87
2022/05/13 06:40:53;;;;;;;15.23;2.78;;;;;;;;;;5113445;28;20103;-87
2022/05/13 06:43:19;;;;;;;15.13;3.15;;;;;;;;;;5097720;28;20032;-87
2022/05/13 06:45:44;;;;;;;20.50;2.95;;;;;;;;;;5113480;28;20047;-87
2022/05/13 06:48:10;;;;;;;15.43;3.38;;;;;;;;;;5113264;28;20413;-87
2022/05/13 06:50:35;;;;;;;14.43;3.20;;;;;;;;;;5113235;28;20474;-88
2022/05/13 06:53:00;;;;;;;21.63;3.80;;;;;;;;;;5097385;28;20095;-88
2022/05/13 06:55:25;;;;;;;19.73;4.18;;;;;;;;;;5113212;28;20044;-86
2022/05/13 06:57:51;;;;;;;19.23;3.28;;;;;;;;;;5096180;28;20053;-87
2022/05/13 07:00:16;;;;;;;20.38;4.10;;;;;;;;;;5112973;28;20386;-87
2022/05/13 07:02:41;;;;;;;17.83;4.95;;;;;;;;;;5113027;28;20024;-86
2022/05/13 07:05:08;;;;;;;20.92;3.97;;;;;;;;;;5097647;28;20395;-87
2022/05/13 07:07:33;;;;;;;19.45;4.20;;;;;;;;;;5112929;28;20031;-87
2022/05/13 07:09:58;;;;;;;15.75;4.60;;;;;;;;;;5096038;28;20016;-87
2022/05/13 07:12:23;;;;;;;19.23;4.07;;;;;;;;;;5112906;28;20031;-88
2022/05/13 07:14:49;;;;;;;22.25;4.13;;;;;;;;;;5112859;28;20463;-88
2022/05/13 07:17:14;;;;;;;20.40;4.28;;;;;;;;;;5112728;28;20016;-87
2022/05/13 07:19:40;;;;;;;16.65;4.53;;;;;;;;;;5097357;28;20082;-87
2022/05/13 07:22:06;;;;;;;18.33;4.70;;;;;;;;;;5112654;28;20075;-88
2022/05/13 07:24:31;;;;;;;14.18;3.70;;;;;;;;;;5096871;28;20383;-88
2022/05/13 07:26:56;;;;;;;16.10;4.40;;;;;;;;;;5112622;28;20061;-87
2022/05/13 07:29:21;;;;;;;18.23;4.38;;;;;;;;;;5096645;28;20017;-87
2022/05/13 07:31:48;;;;;;;21.50;4.13;;;;;;;;;;5112543;28;20035;-87
2022/05/13 07:34:13;;;;;;;15.00;2.95;;;;;;;;;;5112458;28;20034;-87
2022/05/13 07:36:38;;;;;;;13.02;3.67;;;;;;;;;;5112466;28;20103;-87
2022/05/13 07:41:47;;;;;;;21.20;3.47;;;;;;;;;;5096815;28;20027;-87
2022/05/13 07:44:13;;;;;;;17.85;3.28;;;;;;;;;;5111033;28;20024;-88
2022/05/13 07:46:39;;;;;;;18.75;4.03;;;;;;;;;;5112203;28;20012;-87
2022/05/13 07:49:05;;;;;;;17.00;3.25;;;;;;;;;;5112142;28;20020;-87
2022/05/13 07:51:30;;;;;;;13.73;3.28;;;;;;;;;;5112093;28;20111;-86
2022/05/13 07:53:55;;;;;;;16.17;3.10;;;;;;;;;;5112107;28;20032;-88
2022/05/13 07:56:20;;;;;;;16.65;2.85;;;;;;;;;;5112112;28;20020;-87
2022/05/13 07:58:46;;;;;;;21.60;2.85;;;;;;;;;;5112215;28;20035;-87
2022/05/13 08:01:11;;;;;;;15.32;2.50;;;;;;;;;;5111871;28;20421;-88
2022/05/13 08:03:36;;;;;;;12.85;3.03;;;;;;;;;;5096265;28;20371;-87
2022/05/13 08:06:06;;;;;;;18.50;3.45;;;;;;;;;;5111771;28;20069;-87
2022/05/13 08:08:35;;;;;;;17.88;2.97;;;;;;;;;;5111805;28;20016;-88
2022/05/13 08:11:02;;;;;;;12.60;2.63;;;;;;;;;;5111760;28;20020;-87
2022/05/13 08:13:31;;;;;;;13.13;2.20;;;;;;;;;;5111753;28;20115;-88
2022/05/13 08:15:56;;;;;;;13.45;2.63;;;;;;;;;;5095835;28;20030;-87
2022/05/13 08:18:21;;;;;;;11.40;2.40;;;;;;;;;;5095617;28;20020;-87
2022/05/13 08:20:47;;;;;;;10.98;2.53;;;;;;;;;;5111476;28;20376;-87
2022/05/13 08:23:12;;;;;;;10.75;2.03;;;;;;;;;;5111454;28;20420;-87
2022/05/13 08:25:38;;;;;;;9.52;2.47;;;;;;;;;;5096018;28;20043;-88
2022/05/13 08:28:07;;;;;;;16.05;2.40;;;;;;;;;;5095490;28;20032;-87
2022/05/13 08:30:32;;;;;;;15.15;3.30;;;;;;;;;;5111644;28;20031;-88
2022/05/13 08:33:01;;;;;;;11.05;2.38;;;;;;;;;;5111180;28;20028;-88
2022/05/13 08:35:27;;;;;;;10.75;2.50;;;;;;;;;;5111187;28;20107;-88
2022/05/13 08:37:52;;;;;;;9.35;2.20;;;;;;;;;;5111153;28;20055;-87
2022/05/13 08:40:25;;;;;;;10.35;1.95;;;;;;;;;;5111065;28;20046;-87
2022/05/13 08:42:51;;;;;;;9.75;1.90;;;;;;;;;;5111036;28;20154;-88
2022/05/13 08:45:17;;;;;;;13.57;2.45;;;;;;;;;;5111151;28;20048;-87
2022/05/13 08:47:56;;;;;;;8.82;1.98;;;;;;;;;;5095223;28;20371;-88
2022/05/13 08:50:44;;;;;;;10.40;1.90;;;;;;;;;;5110886;28;20012;-87
2022/05/13 08:53:25;;;;;;;13.10;1.77;;;;;;;;;;5084417;28;20050;-87
2022/05/13 08:55:51;;;;;;;11.32;1.80;;;;;;;;;;5110527;28;20017;-87
2022/05/13 08:58:22;;;;;;;8.43;1.42;;;;;;;;;;5110788;28;20094;-88
2022/05/13 09:00:50;;;;;;;3.92;1.05;;;;;;;;;;5110597;28;20055;-87
2022/05/13 09:03:24;;;;;;;12.15;1.15;;;;;;;;;;5095203;28;20359;-87
2022/05/13 09:05:53;;;;;;;8.23;1.10;;;;;;;;;;5110614;28;20065;-87
2022/05/13 09:08:20;;;;;;;8.48;1.55;;;;;;;;;;5110517;28;20038;-87
2022/05/13 09:10:53;;;;;;;11.40;1.38;;;;;;;;;;5094671;28;20425;-88
2022/05/13 09:13:23;;;;;;;8.85;1.55;;;;;;;;;;5110469;28;20048;-88
2022/05/13 09:15:50;;;;;;;11.93;2.05;;;;;;;;;;5110391;28;20020;-87
2022/05/13 09:18:36;;;;;;;10.30;1.50;;;;;;;;;;5110370;28;20023;-87
2022/05/13 09:21:03;;;;;;;8.98;2.17;;;;;;;;;;5110293;28;20115;-87
2022/05/13 09:23:28;;;;;;;5.60;0.98;;;;;;;;;;5110309;28;20027;-87
2022/05/13 09:26:09;;;;;;;5.70;0.80;;;;;;;;;;5110219;28;20031;-88
2022/05/13 09:28:35;;;;;;;6.57;1.13;;;;;;;;;;5110207;28;20016;-86
2022/05/13 09:31:20;;;;;;;7.68;1.30;;;;;;;;;;5110068;28;20428;-87
2022/05/13 09:33:47;;;;;;;5.03;0.85;;;;;;;;;;5094272;28;20024;-88
2022/05/13 09:36:27;;;;;;;4.47;1.00;;;;;;;;;;5094302;28;20024;-87
2022/05/13 09:38:53;;;;;;;10.23;1.30;;;;;;;;;;5109989;28;20078;-87
2022/05/13 09:41:25;;;;;;;10.05;0.90;;;;;;;;;;5109765;28;20103;-88
2022/05/13 09:43:52;;;;;;;4.72;0.88;;;;;;;;;;5109966;28;20383;-86
2022/05/13 09:46:24;;;;;;;5.20;1.02;;;;;;;;;;5109942;28;20103;-88
2022/05/13 09:48:53;;;;;;;4.47;0.80;;;;;;;;;;5094089;28;20024;-87
2022/05/13 09:51:21;;;;;;;4.72;1.08;;;;;;;;;;5109952;28;20055;-88
2022/05/13 09:53:59;;;;;;;2.75;0.80;;;;;;;;;;5110165;28;20119;-88
2022/05/13 09:56:33;;;;;;;7.85;0.98;;;;;;;;;;5110023;28;20016;-87
2022/05/13 09:59:03;;;;;;;6.45;1.02;;;;;;;;;;5094070;28;20107;-87
2022/05/13 10:01:28;;;;;;;6.05;1.20;;;;;;;;;;5109758;28;20103;-88
2022/05/13 10:04:00;;;;;;;5.82;1.30;;;;;;;;;;5109625;28;20520;-88
2022/05/13 10:06:30;;;;;;;7.70;0.98;;;;;;;;;;5093408;28;20016;-87
2022/05/13 10:13:57;;;;;;;7.10;1.15;;;;;;;;;;5109735;28;20023;-88
2022/05/13 10:14:28;;;;;;;3.42;0.93;;;;;;;;;;5093937;28;20165;-87
2022/05/13 10:16:55;;;;;;;4.95;1.00;;;;;;;;;;5109568;28;20020;-87
2022/05/13 10:19:42;;;;;;;8.85;1.08;;;;;;;;;;5109639;28;20107;-88
2022/05/13 10:22:19;;;;;;;5.32;1.02;;;;;;;;;;5093716;28;20028;-87
2022/05/13 10:24:57;;;;;;;9.25;1.35;;;;;;;;;;5109564;28;20490;-87
2022/05/13 10:27:39;;;;;;;3.85;0.85;;;;;;;;;;5109506;28;20383;-87
2022/05/13 10:30:06;;;;;;;1.60;0.80;;;;;;;;;;5093696;28;20026;-87
2022/05/13 10:32:47;;;;;;;10.88;1.23;;;;;;;;;;5109401;28;20055;-87
2022/05/13 10:35:15;;;;;;;8.00;0.90;;;;;;;;;;5109504;28;20387;-88
2022/05/13 10:37:58;;;;;;;3.45;1.00;;;;;;;;;;5109373;28;20019;-87
2022/05/13 10:40:25;;;;;;;4.50;1.10;;;;;;;;;;5109471;28;20499;-89
2022/05/13 10:43:04;;;;;;;5.00;1.05;;;;;;;;;;5109980;28;20039;-87
2022/05/13 10:45:30;;;;;;;9.18;1.13;;;;;;;;;;5093792;28;20020;-88
2022/05/13 10:47:58;;;;;;;6.22;1.00;;;;;;;;;;5093691;28;20363;-88
2022/05/13 10:50:25;;;;;;;5.60;1.20;;;;;;;;;;5093659;28;20054;-87
2022/05/13 10:52:57;;;;;;;11.50;1.60;;;;;;;;;;5093503;28;20092;-88
2022/05/13 10:55:35;;;;;;;6.32;1.45;;;;;;;;;;5109508;28;20024;-88
2022/05/13 10:58:12;;;;;;;11.90;1.17;;;;;;;;;;5109400;28;20028;-88
2022/05/13 11:00:43;;;;;;;7.88;1.13;;;;;;;;;;5109244;28;20024;-89
2022/05/13 11:03:21;;;;;;;5.72;0.93;;;;;;;;;;5109404;28;20376;-89
2022/05/13 11:06:05;;;;;;;3.97;1.23;;;;;;;;;;5109404;28;20078;-89
2022/05/13 11:08:36;;;;;;;4.60;1.67;;;;;;;;;;5093871;28;20471;-88
2022/05/13 11:11:13;;;;;;;3.73;1.20;;;;;;;;;;5093667;28;20110;-89
2022/05/13 11:13:39;;;;;;;7.07;1.00;;;;;;;;;;5109456;28;20383;-88
2022/05/13 11:16:07;;;;;;;4.72;1.20;;;;;;;;;;5109293;28;20023;-88
2022/05/13 11:18:39;;;;;;;6.75;0.98;;;;;;;;;;5112062;28;20031;-89
2022/05/13 11:21:13;;;;;;;6.13;1.20;;;;;;;;;;5112903;28;20063;-89
2022/05/13 11:26:46;;;;;;;7.03;1.17;;;;;;;;;;5097214;28;20031;-89
2022/05/13 11:29:33;;;;;;;3.95;1.13;;;;;;;;;;5097225;28;20112;-88
2022/05/13 11:32:03;;;;;;;9.88;1.00;;;;;;;;;;5112919;28;20024;-89
2022/05/13 11:34:44;;;;;;;5.07;1.13;;;;;;;;;;5112672;28;20386;-88
2022/05/13 11:37:15;;;;;;;9.27;1.15;;;;;;;;;;5112847;28;20076;-89
2022/05/13 11:39:43;;;;;;;3.83;1.10;;;;;;;;;;5112539;28;20039;-88
2022/05/13 11:45:34;;;;;;;7.05;1.20;;;;;;;;;;5095023;28;20039;-88
2022/05/13 11:48:17;;;;;;;10.38;1.08;;;;;;;;;;5094734;28;20030;-88
2022/05/13 11:50:42;;;;;;;4.47;1.23;;;;;;;;;;5106514;28;20036;-89
2022/05/13 11:53:08;;;;;;;9.35;1.88;;;;;;;;;;5112290;28;20031;-88
2022/05/13 11:55:39;;;;;;;11.23;1.88;;;;;;;;;;5097038;28;20020;-89
2022/05/13 11:58:06;;;;;;;3.65;1.13;;;;;;;;;;5112294;28;20051;-89
2022/05/13 12:00:33;;;;;;;10.88;1.30;;;;;;;;;;5096318;28;20023;-89
2022/05/13 12:03:04;;;;;;;7.70;1.30;;;;;;;;;;5096718;28;20012;-89
2022/05/13 12:05:31;;;;;;;11.35;1.80;;;;;;;;;;5111967;28;20031;-88
2022/05/13 12:08:16;;;;;;;8.27;1.63;;;;;;;;;;5111879;28;20012;-88
2022/05/13 12:10:50;;;;;;;6.45;1.50;;;;;;;;;;5096331;28;20024;-90
2022/05/13 12:13:22;;;;;;;7.18;1.48;;;;;;;;;;5096041;28;20054;-88
2022/05/13 12:16:06;;;;;;;6.57;1.20;;;;;;;;;;5111918;28;20020;-89
2022/05/13 12:18:39;;;;;;;6.47;1.58;;;;;;;;;;5111972;28;20031;-89
2022/05/13 12:21:16;;;;;;;6.53;1.60;;;;;;;;;;5095828;28;20360;-87
2022/05/13 12:23:50;;;;;;;7.53;1.35;;;;;;;;;;5096130;28;20018;-88
2022/05/13 12:26:20;;;;;;;5.25;1.42;;;;;;;;;;5111777;28;20024;-88
2022/05/13 12:28:54;;;;;;;5.60;1.70;;;;;;;;;;5111004;28;20027;-89
2022/05/13 12:31:20;;;;;;;8.80;1.55;;;;;;;;;;5111725;28;20041;-89
2022/05/13 12:37:33;;;;;;;7.40;1.40;;;;;;;;;;5095859;28;20024;-89
2022/05/13 12:39:42;;;;;;;10.45;1.95;;;;;;;;;;5095994;28;20023;-88
2022/05/13 12:42:09;;;;;;;11.35;1.70;;;;;;;;;;5111246;28;20020;-90
2022/05/13 12:44:39;;;;;;;7.72;1.80;;;;;;;;;;5111280;28;20390;-88
2022/05/13 12:47:14;;;;;;;12.38;1.83;;;;;;;;;;5111250;28;20459;-88
2022/05/13 12:49:48;;;;;;;7.05;1.80;;;;;;;;;;5111125;28;20020;-89
2022/05/13 12:52:15;;;;;;;10.38;1.85;;;;;;;;;;5111070;28;20017;-88
2022/05/13 12:54:48;;;;;;;4.75;1.30;;;;;;;;;;5110861;28;20044;-88
2022/05/13 12:57:47;;;;;;;5.60;1.25;;;;;;;;;;5095134;28;20080;-88
2022/05/13 13:00:23;;;;;;;9.10;1.98;;;;;;;;;;5093968;28;20119;-88
2022/05/13 13:02:50;;;;;;;7.68;1.52;;;;;;;;;;5110740;28;20032;-88
2022/05/13 13:05:33;;;;;;;3.47;1.17;;;;;;;;;;5093918;28;20031;-88
2022/05/13 13:07:58;;;;;;;;;;;;;;;;;;5095322;28;20438;-88
2022/05/13 13:10:23;;;;;;;9.50;2.13;;;;;;;;;;5095035;28;20343;-89
2022/05/13 13:12:54;;;;;;;5.68;1.33;;;;;;;;;;5110805;28;20116;-89
2022/05/13 13:15:23;;;;;;;15.13;2.33;;;;;;;;;;5094940;28;20027;-88
2022/05/13 13:17:52;;;;;;;6.18;1.27;;;;;;;;;;5110576;28;20510;-88
2022/05/13 13:20:18;;;;;;;6.43;1.50;;;;;;;;;;5110650;28;20046;-87
2022/05/13 13:22:45;;;;;;;7.22;1.40;;;;;;;;;;5110370;28;20078;-88
2022/05/13 13:25:30;;;;;;;11.70;1.88;;;;;;;;;;5093401;28;20028;-89
2022/05/13 13:27:57;;;;;;;11.73;2.05;;;;;;;;;;5093810;28;20059;-88
2022/05/13 13:30:23;;;;;;;5.90;1.40;;;;;;;;;;5094558;28;20016;-88
2022/05/13 13:32:49;;;;;;;11.93;1.60;;;;;;;;;;5094537;28;20016;-88
2022/05/13 13:35:14;;;;;;;6.85;1.48;;;;;;;;;;5094231;28;20027;-87
2022/05/13 13:37:40;;;;;;;7.53;1.95;;;;;;;;;;5110275;28;20020;-88
2022/05/13 13:40:22;;;;;;;8.52;1.48;;;;;;;;;;5109929;28;20039;-87
2022/05/13 13:42:47;;;;;;;6.43;1.20;;;;;;;;;;5109457;28;20038;-88
2022/05/13 13:45:15;;;;;;;5.68;1.23;;;;;;;;;;5094254;28;20024;-88
2022/05/13 13:47:41;;;;;;;7.40;1.55;;;;;;;;;;5109923;28;20032;-90
2022/05/13 13:50:10;;;;;;;5.82;1.17;;;;;;;;;;5109942;28;20028;-89
2022/05/13 13:52:39;;;;;;;5.95;1.58;;;;;;;;;;5109855;28;20021;-88
2022/05/13 13:55:09;;;;;;;5.60;1.48;;;;;;;;;;5110149;28;20053;-89
2022/05/13 13:57:53;;;;;;;8.75;1.25;;;;;;;;;;5094146;28;20476;-89
2022/05/13 14:00:30;;;;;;;8.30;1.90;;;;;;;;;;5109953;28;20020;-89
2022/05/13 14:03:07;;;;;;;10.95;1.70;;;;;;;;;;5094071;28;20031;-89
2022/05/13 14:05:38;;;;;;;6.05;1.20;;;;;;;;;;5094349;28;20048;-88
2022/05/13 14:08:04;;;;;;;14.15;1.60;;;;;;;;;;5094179;28;20027;-88
2022/05/13 14:10:49;;;;;;;7.57;1.20;;;;;;;;;;5109837;28;20016;-89
2022/05/13 14:13:15;;;;;;;10.07;1.40;;;;;;;;;;5093353;28;20036;-90
2022/05/13 14:15:42;;;;;;;10.30;1.65;;;;;;;;;;5109769;28;20513;-89
2022/05/13 14:18:09;;;;;;;9.23;1.30;;;;;;;;;;5109616;28;20032;-89
2022/05/13 14:20:37;;;;;;;6.72;1.20;;;;;;;;;;5109815;28;20143;-88
2022/05/13 14:23:20;;;;;;;9.80;0.90;;;;;;;;;;5093947;28;20490;-88
2022/05/13 14:25:49;;;;;;;3.88;1.20;;;;;;;;;;5093849;28;20016;-89
2022/05/13 14:28:15;;;;;;;8.52;1.30;;;;;;;;;;5093881;28;20094;-89
2022/05/13 14:30:45;;;;;;;6.40;1.33;;;;;;;;;;5109699;28;20434;-89
2022/05/13 14:33:10;;;;;;;9.40;1.20;;;;;;;;;;5093906;28;20490;-89
2022/05/13 14:35:36;;;;;;;7.93;1.20;;;;;;;;;;5093813;28;20028;-88
2022/05/13 14:38:06;;;;;;;7.78;1.40;;;;;;;;;;5109772;28;20023;-88
2022/05/13 14:40:42;;;;;;;7.60;1.35;;;;;;;;;;5094055;28;20016;-89
2022/05/13 14:43:09;;;;;;;7.68;1.50;;;;;;;;;;5109733;28;20475;-88
2022/05/13 14:45:37;;;;;;;5.97;1.38;;;;;;;;;;5093797;28;20020;-89
2022/05/13 14:48:10;;;;;;;4.88;1.10;;;;;;;;;;5094042;28;20028;-88
2022/05/13 14:50:36;;;;;;;7.35;1.05;;;;;;;;;;5109435;28;20031;-89
2022/05/13 14:53:11;;;;;;;7.10;1.10;;;;;;;;;;5111310;28;20016;-89
2022/05/13 14:55:40;;;;;;;8.00;1.25;;;;;;;;;;5113487;28;20019;-88
2022/05/13 14:58:24;;;;;;;8.55;1.30;;;;;;;;;;5113188;28;20020;-90
2022/05/13 15:00:53;;;;;;;7.63;0.98;;;;;;;;;;5097559;28;20027;-90
2022/05/13 15:03:35;;;;;;;5.57;0.93;;;;;;;;;;5097424;28;20024;-88
2022/05/13 15:06:19;;;;;;;6.05;1.20;;;;;;;;;;5113191;28;20020;-88
2022/05/13 15:08:46;;;;;;;5.78;1.10;;;;;;;;;;5113206;28;20020;-88